createdAt,value
2019-02-25T00:00:08.488Z,11.93
2019-02-25T00:02:37.712Z,14.18
2019-02-25T00:05:06.686Z,12.05
2019-02-25T00:07:41.742Z,10.77
2019-02-25T00:10:10.606Z,11.90
2019-02-25T00:12:39.353Z,10.85
2019-02-25T00:15:15.616Z,12.40
2019-02-25T00:17:44.377Z,12.53
2019-02-25T00:20:13.305Z,12.80
2019-02-25T00:22:48.912Z,11.88
2019-02-25T00:25:17.802Z,12.03
2019-02-25T00:27:46.556Z,12.53
2019-02-25T00:30:30.060Z,12.57
2019-02-25T00:33:05.408Z,12.80
2019-02-25T00:35:47.836Z,12.50
2019-02-25T00:38:16.624Z,12.95
2019-02-25T00:40:45.385Z,12.70
2019-02-25T00:43:20.682Z,11.80
2019-02-25T00:45:49.397Z,13.32
2019-02-25T00:48:18.153Z,12.37
2019-02-25T00:50:53.885Z,13.13
2019-02-25T00:53:22.892Z,13.78
2019-02-25T00:55:51.750Z,13.15
2019-02-25T00:58:27.056Z,14.23
2019-02-25T01:00:55.810Z,13.28
2019-02-25T01:03:24.662Z,13.50
2019-02-25T01:05:59.913Z,13.57
2019-02-25T01:08:28.700Z,13.03
2019-02-25T01:10:57.456Z,14.13
2019-02-25T01:13:32.537Z,13.38
2019-02-25T01:16:01.290Z,13.75
2019-02-25T01:18:30.064Z,13.90
2019-02-25T01:21:05.426Z,12.43
2019-02-25T01:23:34.154Z,12.50
2019-02-25T01:26:02.922Z,14.93
2019-02-25T01:28:37.773Z,13.68
2019-02-25T01:31:13.128Z,12.07
2019-02-25T01:33:54.699Z,13.67
2019-02-25T01:36:29.912Z,12.15
2019-02-25T01:39:04.893Z,12.70
2019-02-25T01:41:33.634Z,13.48
2019-02-25T01:44:02.454Z,12.70
2019-02-25T01:46:38.850Z,12.43
2019-02-25T01:49:07.639Z,11.73
2019-02-25T01:51:36.377Z,13.65
2019-02-25T01:54:11.402Z,13.70
2019-02-25T01:56:40.157Z,13.03
2019-02-25T01:59:08.919Z,12.28
2019-02-25T02:01:44.497Z,12.23
2019-02-25T02:04:13.280Z,12.83
2019-02-25T02:06:42.128Z,12.97
2019-02-25T02:09:17.478Z,12.83
2019-02-25T02:11:46.188Z,13.70
2019-02-25T02:14:15.054Z,14.10
2019-02-25T02:16:50.793Z,12.70
2019-02-25T02:19:19.531Z,14.38
2019-02-25T02:21:48.281Z,12.80
2019-02-25T02:24:23.943Z,14.10
2019-02-25T02:26:52.672Z,13.80
2019-02-25T02:29:21.416Z,12.78
2019-02-25T02:32:03.716Z,13.32
2019-02-25T02:34:39.120Z,12.50
2019-02-25T02:37:20.183Z,12.65
2019-02-25T02:39:48.928Z,12.90
2019-02-25T02:42:21.841Z,13.50
2019-02-25T02:45:20.384Z,12.47
2019-02-25T02:48:04.045Z,13.70
2019-02-25T02:50:39.892Z,13.00
2019-02-25T02:53:08.672Z,12.58
2019-02-25T02:55:37.362Z,11.60
2019-02-25T02:58:12.806Z,13.30
2019-02-25T03:00:41.601Z,13.53
2019-02-25T03:03:11.002Z,11.73
2019-02-25T03:05:46.621Z,12.90
2019-02-25T03:08:15.353Z,13.95
2019-02-25T03:10:44.868Z,14.55
2019-02-25T03:13:20.259Z,13.62
2019-02-25T03:15:49.034Z,12.85
2019-02-25T03:18:17.815Z,12.85
2019-02-25T03:20:52.867Z,13.40
2019-02-25T03:23:21.583Z,13.38
2019-02-25T03:25:51.053Z,12.60
2019-02-25T03:28:26.215Z,12.47
2019-02-25T03:30:54.960Z,13.18
2019-02-25T03:33:43.869Z,12.15
2019-02-25T03:36:12.670Z,13.20
2019-02-25T03:38:41.399Z,14.60
2019-02-25T03:41:16.881Z,13.85
2019-02-25T03:43:45.662Z,14.15
2019-02-25T03:46:14.415Z,13.15
2019-02-25T03:48:49.570Z,13.93
2019-02-25T03:51:18.367Z,14.17
2019-02-25T03:53:47.447Z,14.43
2019-02-25T03:56:23.109Z,13.93
2019-02-25T03:58:51.856Z,14.03
2019-02-25T04:01:20.633Z,15.57
2019-02-25T04:03:56.407Z,13.15
2019-02-25T04:06:25.304Z,13.68
2019-02-25T04:08:54.043Z,14.73
2019-02-25T04:11:29.548Z,13.43
2019-02-25T04:13:58.285Z,13.48
2019-02-25T04:16:27.101Z,13.48
2019-02-25T04:19:02.068Z,13.03
2019-02-25T04:21:30.781Z,13.00
2019-02-25T04:23:59.529Z,13.88
2019-02-25T04:26:35.322Z,13.43
2019-02-25T04:29:04.621Z,13.78
2019-02-25T04:31:45.987Z,13.93
2019-02-25T04:34:33.781Z,12.80
2019-02-25T04:37:09.696Z,13.75
2019-02-25T04:39:38.531Z,13.62
2019-02-25T04:42:07.420Z,13.35
2019-02-25T04:44:43.137Z,14.10
2019-02-25T04:47:12.695Z,13.95
2019-02-25T04:49:43.888Z,13.93
2019-02-25T04:52:20.327Z,13.75
2019-02-25T04:54:49.177Z,12.98
2019-02-25T04:57:18.026Z,14.90
2019-02-25T04:59:53.981Z,13.58
2019-02-25T05:02:25.110Z,13.53
2019-02-25T05:05:14.336Z,15.43
2019-02-25T05:07:43.370Z,15.98
2019-02-25T05:10:20.124Z,14.25
2019-02-25T05:12:54.540Z,14.15
2019-02-25T05:18:15.667Z,15.45
2019-02-25T05:20:59.112Z,14.78
2019-02-25T05:23:28.963Z,14.65
2019-02-25T05:25:57.728Z,13.60
2019-02-25T05:28:32.694Z,12.53
2019-02-25T05:31:01.440Z,15.13
2019-02-25T05:33:30.273Z,13.40
2019-02-25T05:36:11.681Z,15.55
2019-02-25T05:38:41.622Z,12.83
2019-02-25T05:41:10.446Z,13.45
2019-02-25T05:43:47.986Z,16.00
2019-02-25T05:46:16.759Z,14.93
2019-02-25T05:48:45.761Z,13.50
2019-02-25T05:51:20.995Z,14.80
2019-02-25T05:53:49.800Z,13.72
2019-02-25T05:56:18.697Z,13.80
2019-02-25T05:58:56.665Z,14.50
2019-02-25T06:01:27.732Z,14.95
2019-02-25T06:04:03.596Z,15.15
2019-02-25T06:06:32.335Z,14.90
2019-02-25T06:09:01.265Z,15.90
2019-02-25T06:11:36.440Z,13.75
2019-02-25T06:14:05.914Z,14.05
2019-02-25T06:16:47.188Z,14.35
2019-02-25T06:19:24.878Z,17.17
2019-02-25T06:21:59.869Z,16.93
2019-02-25T06:24:28.697Z,15.90
2019-02-25T06:27:17.979Z,15.32
2019-02-25T06:29:53.508Z,15.78
2019-02-25T06:32:30.832Z,15.45
2019-02-25T06:34:59.603Z,15.30
2019-02-25T06:37:41.980Z,14.98
2019-02-25T06:40:15.217Z,16.57
2019-02-25T06:42:43.389Z,13.93
2019-02-25T06:45:20.980Z,14.75
2019-02-25T06:47:49.726Z,16.10
2019-02-25T06:50:18.994Z,15.25
2019-02-25T06:52:54.362Z,15.48
2019-02-25T06:55:23.193Z,16.23
2019-02-25T06:57:51.969Z,15.90
2019-02-25T07:00:27.837Z,14.03
2019-02-25T07:02:56.654Z,15.13
2019-02-25T07:05:54.145Z,17.25
2019-02-25T07:08:29.699Z,15.28
2019-02-25T07:11:22.956Z,14.65
2019-02-25T07:14:15.088Z,16.05
2019-02-25T07:17:08.319Z,15.65
2019-02-25T07:20:02.705Z,16.02
2019-02-25T07:23:09.308Z,15.90
2019-02-25T07:25:55.982Z,16.05
2019-02-25T07:28:48.832Z,15.60
2019-02-25T07:31:36.279Z,15.60
2019-02-25T07:34:23.828Z,14.60
2019-02-25T07:37:10.366Z,15.72
2019-02-25T07:39:57.586Z,14.80
2019-02-25T07:42:46.504Z,15.18
2019-02-25T07:45:40.140Z,15.93
2019-02-25T07:48:14.774Z,14.40
2019-02-25T07:51:09.541Z,14.07
2019-02-25T07:53:47.955Z,16.32
2019-02-25T07:56:30.925Z,15.85
2019-02-25T07:59:08.498Z,14.70
2019-02-25T08:01:59.307Z,15.53
2019-02-25T08:04:40.246Z,14.43
2019-02-25T08:07:32.734Z,14.80
2019-02-25T08:10:17.323Z,15.40
2019-02-25T08:12:58.909Z,14.23
2019-02-25T08:15:32.831Z,17.67
2019-02-25T08:18:33.130Z,14.78
2019-02-25T08:21:30.753Z,16.57
2019-02-25T08:24:14.555Z,16.25
2019-02-25T08:26:55.077Z,15.80
2019-02-25T08:29:58.263Z,15.23
2019-02-25T08:32:44.707Z,16.70
2019-02-25T08:35:56.497Z,15.23
2019-02-25T08:38:42.840Z,17.17
2019-02-25T08:41:33.416Z,18.20
2019-02-25T08:44:10.805Z,16.20
2019-02-25T08:47:00.194Z,16.77
2019-02-25T08:49:32.661Z,16.50
2019-02-25T08:52:01.490Z,18.23
2019-02-25T08:54:36.837Z,17.43
2019-02-25T08:57:05.716Z,16.52
2019-02-25T08:59:34.417Z,17.45
2019-02-25T09:02:10.077Z,16.60
2019-02-25T09:04:39.685Z,19.35
2019-02-25T09:07:08.582Z,15.63
2019-02-25T09:09:44.196Z,16.35
2019-02-25T09:12:13.337Z,16.67
2019-02-25T09:14:42.079Z,17.90
2019-02-25T09:17:18.826Z,14.93
2019-02-25T09:19:54.039Z,13.80
2019-02-25T09:22:36.072Z,17.52
2019-02-25T09:25:05.322Z,13.85
2019-02-25T09:27:34.118Z,14.07
2019-02-25T09:30:09.089Z,12.93
2019-02-25T09:32:37.952Z,14.75
2019-02-25T09:35:06.883Z,16.48
2019-02-25T09:37:42.193Z,16.65
2019-02-25T09:40:13.134Z,17.45
2019-02-25T09:42:55.204Z,16.97
2019-02-25T09:45:23.975Z,16.37
2019-02-25T09:47:52.756Z,16.07
2019-02-25T09:50:28.519Z,15.23
2019-02-25T09:52:57.425Z,17.20
2019-02-25T09:55:26.844Z,16.15
2019-02-25T09:58:02.828Z,16.65
2019-02-25T10:00:32.137Z,17.60
2019-02-25T10:03:00.888Z,18.02
2019-02-25T10:05:36.169Z,18.05
2019-02-25T10:08:05.203Z,17.60
2019-02-25T10:10:34.003Z,16.37
2019-02-25T10:13:09.748Z,13.65
2019-02-25T10:15:38.851Z,16.27
2019-02-25T10:18:08.012Z,17.12
2019-02-25T10:20:43.690Z,15.70
2019-02-25T10:23:19.559Z,15.08
2019-02-25T10:25:55.262Z,16.30
2019-02-25T10:28:25.102Z,14.07
2019-02-25T10:30:53.898Z,16.45
2019-02-25T10:33:28.825Z,14.15
2019-02-25T10:35:57.629Z,13.80
2019-02-25T10:38:26.676Z,17.17
2019-02-25T10:41:03.288Z,15.70
2019-02-25T10:43:38.675Z,14.95
2019-02-25T10:46:15.931Z,15.87
2019-02-25T10:48:44.725Z,12.97
2019-02-25T10:51:14.799Z,14.10
2019-02-25T10:53:51.612Z,12.85
2019-02-25T10:56:27.967Z,14.15
2019-02-25T10:59:04.496Z,12.90
2019-02-25T11:01:34.156Z,12.75
2019-02-25T11:04:02.924Z,13.93
2019-02-25T11:06:37.984Z,13.43
2019-02-25T11:09:48.232Z,12.15
2019-02-25T11:12:25.788Z,10.38
2019-02-25T11:14:54.749Z,10.90
2019-02-25T11:17:24.446Z,10.78
2019-02-25T11:20:01.331Z,12.28
2019-02-25T11:22:39.735Z,8.93
2019-02-25T11:25:15.422Z,10.45
2019-02-25T11:27:44.489Z,9.65
2019-02-25T11:30:14.296Z,9.55
2019-02-25T11:32:55.132Z,9.00
2019-02-25T11:35:22.453Z,9.05
2019-02-25T11:37:54.289Z,7.85
2019-02-25T11:40:31.252Z,10.93
2019-02-25T11:42:59.886Z,10.70
2019-02-25T11:45:42.097Z,7.93
2019-02-25T11:48:11.031Z,8.05
2019-02-25T11:50:39.987Z,9.95
2019-02-25T11:53:16.740Z,9.03
2019-02-25T11:55:45.661Z,10.30
2019-02-25T11:58:14.834Z,9.00
2019-02-25T12:00:50.414Z,10.55
2019-02-25T12:03:19.131Z,9.28
2019-02-25T12:05:47.862Z,8.77
2019-02-25T12:08:26.356Z,10.00
2019-02-25T12:10:55.421Z,9.93
2019-02-25T12:13:24.271Z,10.45
2019-02-25T12:16:00.427Z,10.00
2019-02-25T12:18:29.137Z,8.40
2019-02-25T12:21:11.617Z,10.15
2019-02-25T12:23:47.099Z,7.85
2019-02-25T12:26:23.495Z,9.00
2019-02-25T12:28:52.235Z,8.85
2019-02-25T12:31:20.980Z,7.72
2019-02-25T12:33:55.881Z,9.03
2019-02-25T12:36:24.621Z,8.43
2019-02-25T12:38:53.387Z,9.98
2019-02-25T12:41:28.599Z,7.93
2019-02-25T12:43:57.296Z,7.45
2019-02-25T12:46:40.263Z,5.95
2019-02-25T12:49:09.095Z,5.03
2019-02-25T12:51:37.809Z,5.97
2019-02-25T12:54:13.079Z,5.90
2019-02-25T12:56:41.804Z,6.78
2019-02-25T12:59:10.503Z,7.50
2019-02-25T13:01:46.136Z,7.37
2019-02-25T13:04:14.849Z,7.60
2019-02-25T13:06:43.627Z,6.92
2019-02-25T13:09:20.202Z,8.95
2019-02-25T13:11:48.964Z,8.90
2019-02-25T13:14:17.692Z,9.08
2019-02-25T13:16:52.890Z,7.03
2019-02-25T13:19:21.640Z,7.87
2019-02-25T13:22:02.956Z,8.78
2019-02-25T13:24:39.541Z,7.67
2019-02-25T13:27:15.667Z,7.37
2019-02-25T13:29:44.445Z,6.87
2019-02-25T13:32:13.251Z,8.45
2019-02-25T13:34:48.247Z,7.97
2019-02-25T13:37:17.042Z,6.25
2019-02-25T13:39:45.857Z,6.53
2019-02-25T13:42:21.801Z,7.25
2019-02-25T13:44:50.649Z,6.87
2019-02-25T13:47:33.018Z,6.22
2019-02-25T13:50:02.656Z,8.03
2019-02-25T13:52:31.436Z,6.63
2019-02-25T13:55:07.326Z,7.40
2019-02-25T13:57:36.319Z,7.85
2019-02-25T14:00:20.255Z,6.85
2019-02-25T14:02:49.228Z,6.92
2019-02-25T14:05:18.106Z,7.55
2019-02-25T14:07:54.054Z,6.72
2019-02-25T14:10:25.111Z,7.60
2019-02-25T14:12:54.252Z,7.80
2019-02-25T14:15:29.889Z,6.28
2019-02-25T14:17:58.820Z,7.80
2019-02-25T14:20:28.823Z,8.00
2019-02-25T14:23:04.033Z,9.33
2019-02-25T14:25:41.555Z,9.40
2019-02-25T14:28:16.306Z,8.33
2019-02-25T14:30:45.098Z,7.53
2019-02-25T14:33:14.829Z,7.17
2019-02-25T14:35:53.044Z,8.00
2019-02-25T14:38:22.722Z,9.77
2019-02-25T14:40:53.848Z,8.30
2019-02-25T14:43:28.973Z,8.43
2019-02-25T14:45:58.930Z,8.88
2019-02-25T14:48:42.403Z,9.48
2019-02-25T14:51:11.265Z,9.63
2019-02-25T14:53:41.760Z,9.23
2019-02-25T14:56:17.585Z,8.75
2019-02-25T14:58:47.765Z,8.58
2019-02-25T15:01:18.030Z,10.80
2019-02-25T15:03:55.514Z,9.33
2019-02-25T15:06:25.861Z,11.83
2019-02-25T15:08:57.522Z,9.27
2019-02-25T15:11:34.590Z,10.88
2019-02-25T15:14:11.118Z,10.40
2019-02-25T15:16:47.919Z,11.30
2019-02-25T15:19:16.988Z,9.03
2019-02-25T15:22:06.220Z,7.55
2019-02-25T15:24:35.157Z,12.07
2019-02-25T15:27:04.938Z,9.88
2019-02-25T15:29:45.170Z,9.73
2019-02-25T15:32:15.172Z,8.40
2019-02-25T15:34:44.055Z,10.98
2019-02-25T15:37:20.062Z,8.03
2019-02-25T15:39:49.057Z,11.28
2019-02-25T15:42:18.157Z,10.88
2019-02-25T15:44:53.951Z,9.73
2019-02-25T15:47:23.894Z,10.28
2019-02-25T15:50:06.739Z,11.50
2019-02-25T15:52:39.900Z,11.00
2019-02-25T15:55:17.335Z,12.78
2019-02-25T15:57:47.010Z,9.83
2019-02-25T16:00:27.275Z,9.13
2019-02-25T16:02:57.570Z,11.90
2019-02-25T16:05:29.565Z,11.20
2019-02-25T16:08:06.309Z,11.25
2019-02-25T16:10:35.221Z,12.20
2019-02-25T16:13:11.618Z,10.95
2019-02-25T16:15:45.975Z,12.00
2019-02-25T16:18:14.876Z,12.25
2019-02-25T16:20:46.253Z,12.15
2019-02-25T16:23:20.348Z,11.12
2019-02-25T16:25:56.931Z,11.03
2019-02-25T16:28:33.999Z,9.93
2019-02-25T16:31:08.360Z,11.93
2019-02-25T16:33:44.973Z,11.38
2019-02-25T16:36:13.730Z,11.68
2019-02-25T16:38:42.689Z,10.80
2019-02-25T16:41:27.150Z,11.53
2019-02-25T16:43:50.898Z,13.58
2019-02-25T16:46:20.331Z,11.80
2019-02-25T16:48:57.430Z,13.40
2019-02-25T16:51:35.205Z,10.98
2019-02-25T16:54:11.679Z,12.25
2019-02-25T16:56:40.547Z,14.23
2019-02-25T16:59:11.071Z,15.08
2019-02-25T17:01:46.789Z,12.50
2019-02-25T17:04:16.830Z,12.55
2019-02-25T17:06:46.043Z,14.78
2019-02-25T17:09:27.293Z,11.88
2019-02-25T17:11:57.947Z,13.08
2019-02-25T17:14:27.378Z,16.35
2019-02-25T17:17:02.233Z,13.05
2019-02-25T17:19:31.128Z,15.13
2019-02-25T17:22:00.023Z,14.10
2019-02-25T17:24:36.907Z,13.55
2019-02-25T17:27:14.169Z,15.43
2019-02-25T17:29:51.256Z,13.87
2019-02-25T17:32:21.153Z,13.65
2019-02-25T17:34:51.235Z,15.43
2019-02-25T17:40:32.849Z,15.25
2019-02-25T17:43:02.525Z,15.58
2019-02-25T17:45:32.545Z,13.98
2019-02-25T17:48:10.858Z,16.02
2019-02-25T17:50:41.077Z,15.75
2019-02-25T17:53:24.508Z,14.90
2019-02-25T17:55:55.518Z,14.85
2019-02-25T17:58:24.864Z,13.58
2019-02-25T18:01:01.085Z,15.30
2019-02-25T18:03:31.176Z,15.90
2019-02-25T18:06:00.684Z,16.55
2019-02-25T18:08:39.331Z,15.28
2019-02-25T18:11:08.410Z,16.80
2019-02-25T18:13:37.264Z,17.12
2019-02-25T18:16:14.303Z,16.15
2019-02-25T18:18:45.843Z,14.90
2019-02-25T18:21:23.126Z,14.68
2019-02-25T18:23:52.083Z,14.95
2019-02-25T18:26:21.623Z,15.55
2019-02-25T18:28:57.388Z,15.35
2019-02-25T18:31:26.410Z,14.55
2019-02-25T18:33:55.236Z,16.80
2019-02-25T18:36:31.113Z,16.20
2019-02-25T18:39:07.061Z,16.75
2019-02-25T18:41:50.343Z,16.27
2019-02-25T18:44:19.386Z,17.02
2019-02-25T18:46:49.884Z,16.97
2019-02-25T18:49:26.605Z,16.25
2019-02-25T18:51:56.009Z,15.32
2019-02-25T18:54:39.098Z,16.10
2019-02-25T18:57:09.253Z,14.03
2019-02-25T18:59:38.158Z,15.83
2019-02-25T19:02:14.567Z,17.87
2019-02-25T19:04:45.664Z,14.78
2019-02-25T19:07:15.025Z,15.05
2019-02-25T19:09:51.618Z,16.10
2019-02-25T19:12:20.937Z,19.75
2019-02-25T19:14:52.975Z,17.43
2019-02-25T19:17:28.108Z,15.53
2019-02-25T19:19:57.788Z,17.63
2019-02-25T19:22:28.291Z,16.45
2019-02-25T19:25:04.016Z,15.88
2019-02-25T19:27:35.847Z,16.27
2019-02-25T19:30:12.793Z,19.37
2019-02-25T19:32:41.669Z,20.52
2019-02-25T19:35:11.151Z,15.63
2019-02-25T19:37:46.844Z,19.87
2019-02-25T19:40:24.605Z,17.50
2019-02-25T19:43:07.879Z,17.90
2019-02-25T19:45:38.446Z,18.07
2019-02-25T19:48:16.919Z,18.02
2019-02-25T19:50:50.989Z,17.60
2019-02-25T19:53:19.450Z,18.75
2019-02-25T19:56:00.182Z,16.77
2019-02-25T19:58:31.638Z,18.45
2019-02-25T20:01:01.246Z,19.00
2019-02-25T20:03:37.581Z,19.27
2019-02-25T20:06:11.320Z,19.27
2019-02-25T20:08:38.248Z,20.12
2019-02-25T20:11:14.332Z,18.87
2019-02-25T20:13:43.572Z,17.40
2019-02-25T20:16:15.802Z,18.32
2019-02-25T20:18:49.808Z,18.35
2019-02-25T20:21:20.157Z,19.03
2019-02-25T20:23:50.079Z,18.02
2019-02-25T20:26:26.983Z,18.05
2019-02-25T20:28:56.114Z,18.02
2019-02-25T20:31:24.959Z,20.70
2019-02-25T20:34:01.588Z,17.02
2019-02-25T20:36:33.065Z,17.40
2019-02-25T20:39:11.705Z,19.25
2019-02-25T20:41:49.860Z,17.67
2019-02-25T20:44:33.228Z,19.57
2019-02-25T20:47:03.980Z,17.35
2019-02-25T20:49:33.003Z,18.67
2019-02-25T20:52:08.913Z,18.55
2019-02-25T20:54:40.557Z,21.42
2019-02-25T20:57:21.384Z,18.73
2019-02-25T20:59:51.088Z,17.60
2019-02-25T21:02:21.176Z,18.32
2019-02-25T21:04:58.223Z,19.32
2019-02-25T21:07:28.041Z,19.30
2019-02-25T21:09:59.147Z,17.12
2019-02-25T21:12:35.196Z,20.55
2019-02-25T21:15:04.427Z,17.32
2019-02-25T21:17:35.399Z,17.25
2019-02-25T21:20:12.347Z,18.03
2019-02-25T21:22:41.154Z,17.67
2019-02-25T21:25:10.124Z,17.32
2019-02-25T21:27:45.848Z,19.25
2019-02-25T21:30:15.620Z,18.80
2019-02-25T21:32:47.182Z,19.57
2019-02-25T21:35:23.510Z,17.37
2019-02-25T21:37:52.861Z,16.95
2019-02-25T21:40:35.325Z,17.07
2019-02-25T21:43:14.381Z,18.95
2019-02-25T21:45:49.781Z,15.50
2019-02-25T21:48:21.157Z,18.20
2019-02-25T21:50:48.848Z,17.48
2019-02-25T21:53:24.069Z,17.70
2019-02-25T21:55:53.495Z,18.03
2019-02-25T21:58:37.288Z,18.87
2019-02-25T22:01:06.067Z,17.52
2019-02-25T22:03:39.452Z,18.77
2019-02-25T22:06:12.440Z,16.32
2019-02-25T22:08:41.949Z,18.17
2019-02-25T22:11:13.208Z,18.90
2019-02-25T22:13:48.199Z,17.42
2019-02-25T22:16:16.942Z,19.07
2019-02-25T22:18:47.726Z,17.73
2019-02-25T22:21:22.326Z,17.03
2019-02-25T22:23:54.049Z,16.43
2019-02-25T22:26:24.489Z,17.48
2019-02-25T22:29:00.051Z,16.97
2019-02-25T22:31:29.464Z,18.48
2019-02-25T22:33:58.168Z,18.65
2019-02-25T22:36:33.747Z,17.20
2019-02-25T22:39:03.463Z,19.12
2019-02-25T22:41:47.024Z,18.35
2019-02-25T22:44:22.613Z,15.75
2019-02-25T22:46:59.224Z,18.63
2019-02-25T22:49:28.826Z,19.05
2019-02-25T22:52:00.474Z,18.32
2019-02-25T22:54:39.092Z,18.17
2019-02-25T22:57:06.241Z,18.27
2019-02-25T22:59:50.256Z,19.40
2019-02-25T23:02:18.884Z,20.20
2019-02-25T23:04:49.446Z,19.50
2019-02-25T23:07:24.739Z,18.40
2019-02-25T23:09:54.385Z,18.77
2019-02-25T23:12:24.254Z,17.85
2019-02-25T23:15:03.136Z,19.12
2019-02-25T23:17:35.063Z,21.10
2019-02-25T23:20:03.473Z,19.62
2019-02-25T23:22:39.182Z,19.17
2019-02-25T23:25:08.342Z,17.27
2019-02-25T23:27:38.823Z,20.67
2019-02-25T23:30:14.313Z,17.75
2019-02-25T23:32:43.118Z,18.50
2019-02-25T23:35:15.600Z,19.95
2019-02-25T23:37:49.632Z,18.70
2019-02-25T23:40:19.631Z,19.80
2019-02-25T23:43:01.446Z,17.75
2019-02-25T23:45:38.454Z,19.57
2019-02-25T23:48:14.673Z,17.63
2019-02-25T23:50:43.440Z,18.95
2019-02-25T23:53:12.225Z,20.27
2019-02-25T23:55:49.535Z,19.40
2019-02-25T23:58:20.218Z,17.85
